Terminal Aerodrome Forecast
Issued by NWS Sterling, VA

Current Version | Previous Version | Graphics & Text | Print | Product List | Glossary On
Versions: 1 2 3 4 5 6 7 8 9 10 11 12 13 14 15 16 17 18 19 20 21 22 23 24 25 26 27 28 29 30 31 32
151
FTUS41 KLWX 232043 AAB
TAFDCA
TAF AMD
KDCA 232043Z 2321/2418 22007KT P6SM VCTS SCT060CB BKN120
     FM232200 21007KT P6SM BKN070
     FM240300 19005KT 6SM -SHRA VCTS BKN070CB
     FM240600 21004KT P6SM BKN050
     FM241200 27005KT P6SM SCT250=

USA.gov is the U.S. government's official web portal to all federal, state and local government web resources and services.